sensor_id;sensor_type;location;lat;lon;timestamp;temperature;humidity
9977;DHT22;5029;47.378;11.776;2022-12-29T00:02:52;-1.90;99.90
9977;DHT22;5029;47.378;11.776;2022-12-29T00:07:56;-2.30;99.90
9977;DHT22;5029;47.378;11.776;2022-12-29T00:13:00;-2.30;99.90
9977;DHT22;5029;47.378;11.776;2022-12-29T00:18:22;-2.10;99.90
9977;DHT22;5029;47.378;11.776;2022-12-29T00:23:25;-2.10;99.90
9977;DHT22;5029;47.378;11.776;2022-12-29T00:28:46;-2.20;99.90
9977;DHT22;5029;47.378;11.776;2022-12-29T00:34:11;-2.10;99.90
9977;DHT22;5029;47.378;11.776;2022-12-29T00:39:31;-2.10;99.90
9977;DHT22;5029;47.378;11.776;2022-12-29T00:44:52;-2.40;99.90
9977;DHT22;5029;47.378;11.776;2022-12-29T00:49:57;-2.60;99.90
9977;DHT22;5029;47.378;11.776;2022-12-29T00:55:00;-2.50;99.90
9977;DHT22;5029;47.378;11.776;2022-12-29T01:00:04;-2.30;99.90
9977;DHT22;5029;47.378;11.776;2022-12-29T01:05:10;-2.30;99.90
9977;DHT22;5029;47.378;11.776;2022-12-29T01:10:13;-2.20;99.90
9977;DHT22;5029;47.378;11.776;2022-12-29T01:15:18;-2.20;99.90
9977;DHT22;5029;47.378;11.776;2022-12-29T01:20:23;-2.20;99.90
9977;DHT22;5029;47.378;11.776;2022-12-29T01:25:27;-2.10;99.90
9977;DHT22;5029;47.378;11.776;2022-12-29T01:30:31;-2.50;99.90
9977;DHT22;5029;47.378;11.776;2022-12-29T01:35:36;-2.40;99.90
9977;DHT22;5029;47.378;11.776;2022-12-29T01:40:44;-2.40;99.90
9977;DHT22;5029;47.378;11.776;2022-12-29T01:45:51;-2.40;99.90
9977;DHT22;5029;47.378;11.776;2022-12-29T01:50:56;-2.30;99.90
9977;DHT22;5029;47.378;11.776;2022-12-29T01:56:02;-2.80;99.90
9977;DHT22;5029;47.378;11.776;2022-12-29T02:01:08;-2.80;99.90
9977;DHT22;5029;47.378;11.776;2022-12-29T02:06:16;-2.70;99.90
9977;DHT22;5029;47.378;11.776;2022-12-29T02:11:22;-2.90;99.90
9977;DHT22;5029;47.378;11.776;2022-12-29T02:16:35;-2.60;99.90
9977;DHT22;5029;47.378;11.776;2022-12-29T02:22:00;-2.80;99.90
9977;DHT22;5029;47.378;11.776;2022-12-29T02:27:26;-2.90;99.90
9977;DHT22;5029;47.378;11.776;2022-12-29T02:32:38;-2.70;99.90
9977;DHT22;5029;47.378;11.776;2022-12-29T02:37:50;-2.80;99.90
9977;DHT22;5029;47.378;11.776;2022-12-29T02:43:03;-2.80;99.90
9977;DHT22;5029;47.378;11.776;2022-12-29T02:48:16;-2.80;99.90
9977;DHT22;5029;47.378;11.776;2022-12-29T02:53:21;-2.70;99.90
9977;DHT22;5029;47.378;11.776;2022-12-29T02:58:45;-2.50;99.90
9977;DHT22;5029;47.378;11.776;2022-12-29T03:03:59;-2.90;99.90
9977;DHT22;5029;47.378;11.776;2022-12-29T03:09:13;-2.80;99.90
9977;DHT22;5029;47.378;11.776;2022-12-29T03:14:28;-2.70;99.90
9977;DHT22;5029;47.378;11.776;2022-12-29T03:19:59;-2.70;99.90
9977;DHT22;5029;47.378;11.776;2022-12-29T03:25:09;-2.80;99.90
9977;DHT22;5029;47.378;11.776;2022-12-29T03:30:13;-2.80;99.90
9977;DHT22;5029;47.378;11.776;2022-12-29T03:35:20;-2.80;99.90
9977;DHT22;5029;47.378;11.776;2022-12-29T03:40:26;-2.90;99.90
9977;DHT22;5029;47.378;11.776;2022-12-29T03:45:30;-2.90;99.90
9977;DHT22;5029;47.378;11.776;2022-12-29T03:50:35;-3.00;99.90
9977;DHT22;5029;47.378;11.776;2022-12-29T03:55:39;-2.90;99.90
9977;DHT22;5029;47.378;11.776;2022-12-29T04:00:42;-2.70;99.90
9977;DHT22;5029;47.378;11.776;2022-12-29T04:05:47;-2.80;99.90
9977;DHT22;5029;47.378;11.776;2022-12-29T04:10:51;-2.70;99.90
9977;DHT22;5029;47.378;11.776;2022-12-29T04:15:54;-2.80;99.90
9977;DHT22;5029;47.378;11.776;2022-12-29T04:20:59;-2.60;99.90
9977;DHT22;5029;47.378;11.776;2022-12-29T04:26:04;-2.70;99.90
9977;DHT22;5029;47.378;11.776;2022-12-29T04:31:08;-2.80;99.90
9977;DHT22;5029;47.378;11.776;2022-12-29T04:36:13;-2.90;99.90
9977;DHT22;5029;47.378;11.776;2022-12-29T04:41:19;-2.80;99.90
9977;DHT22;5029;47.378;11.776;2022-12-29T04:46:22;-2.80;99.90
9977;DHT22;5029;47.378;11.776;2022-12-29T04:51:27;-2.80;99.90
9977;DHT22;5029;47.378;11.776;2022-12-29T04:56:31;-2.70;99.90
9977;DHT22;5029;47.378;11.776;2022-12-29T05:01:34;-2.60;99.90
9977;DHT22;5029;47.378;11.776;2022-12-29T05:06:39;-2.50;99.90
9977;DHT22;5029;47.378;11.776;2022-12-29T05:11:42;-2.70;99.90
9977;DHT22;5029;47.378;11.776;2022-12-29T05:16:46;-2.60;99.90
9977;DHT22;5029;47.378;11.776;2022-12-29T05:21:51;-2.80;99.90
9977;DHT22;5029;47.378;11.776;2022-12-29T05:26:54;-2.60;99.90
9977;DHT22;5029;47.378;11.776;2022-12-29T05:31:58;-2.50;99.90
9977;DHT22;5029;47.378;11.776;2022-12-29T05:37:03;-2.50;99.90
9977;DHT22;5029;47.378;11.776;2022-12-29T05:42:06;-2.40;99.90
9977;DHT22;5029;47.378;11.776;2022-12-29T05:47:09;-2.40;99.90
9977;DHT22;5029;47.378;11.776;2022-12-29T05:52:14;-2.60;99.90
9977;DHT22;5029;47.378;11.776;2022-12-29T05:57:19;-2.40;99.90
9977;DHT22;5029;47.378;11.776;2022-12-29T06:02:22;-2.50;99.90
9977;DHT22;5029;47.378;11.776;2022-12-29T06:07:28;-2.40;99.90
9977;DHT22;5029;47.378;11.776;2022-12-29T06:12:31;-2.60;99.90
9977;DHT22;5029;47.378;11.776;2022-12-29T06:17:34;-2.70;99.90
9977;DHT22;5029;47.378;11.776;2022-12-29T06:22:42;-2.60;99.90
9977;DHT22;5029;47.378;11.776;2022-12-29T06:27:45;-2.50;99.90
9977;DHT22;5029;47.378;11.776;2022-12-29T06:32:49;-2.50;99.90
9977;DHT22;5029;47.378;11.776;2022-12-29T06:37:54;-2.60;99.90
9977;DHT22;5029;47.378;11.776;2022-12-29T06:42:58;-2.60;99.90
9977;DHT22;5029;47.378;11.776;2022-12-29T06:48:01;-2.70;99.90
9977;DHT22;5029;47.378;11.776;2022-12-29T06:53:06;-2.70;99.90
9977;DHT22;5029;47.378;11.776;2022-12-29T06:58:09;-2.60;99.90
9977;DHT22;5029;47.378;11.776;2022-12-29T07:03:13;-2.60;99.90
9977;DHT22;5029;47.378;11.776;2022-12-29T07:08:19;-2.60;99.90
9977;DHT22;5029;47.378;11.776;2022-12-29T07:13:22;-2.70;99.90
9977;DHT22;5029;47.378;11.776;2022-12-29T07:18:26;-2.40;99.90
9977;DHT22;5029;47.378;11.776;2022-12-29T07:23:31;-2.30;99.90
9977;DHT22;5029;47.378;11.776;2022-12-29T07:28:35;-2.20;99.90
9977;DHT22;5029;47.378;11.776;2022-12-29T07:33:39;-2.10;99.90
9977;DHT22;5029;47.378;11.776;2022-12-29T07:38:44;-2.10;99.90
9977;DHT22;5029;47.378;11.776;2022-12-29T07:43:48;-2.00;99.90
9977;DHT22;5029;47.378;11.776;2022-12-29T07:48:51;-1.80;99.90
9977;DHT22;5029;47.378;11.776;2022-12-29T07:53:59;-1.80;99.90
9977;DHT22;5029;47.378;11.776;2022-12-29T07:59:03;-1.90;99.90
9977;DHT22;5029;47.378;11.776;2022-12-29T08:04:06;-2.00;99.90
9977;DHT22;5029;47.378;11.776;2022-12-29T08:09:11;-1.80;99.90
9977;DHT22;5029;47.378;11.776;2022-12-29T08:14:23;-1.80;99.90
9977;DHT22;5029;47.378;11.776;2022-12-29T08:19:26;-1.70;99.90
9977;DHT22;5029;47.378;11.776;2022-12-29T08:24:31;-1.60;99.90
9977;DHT22;5029;47.378;11.776;2022-12-29T08:29:34;-1.80;99.90
9977;DHT22;5029;47.378;11.776;2022-12-29T08:34:38;-1.60;99.90
9977;DHT22;5029;47.378;11.776;2022-12-29T08:39:42;-1.70;99.90
9977;DHT22;5029;47.378;11.776;2022-12-29T08:44:46;-1.60;99.90
9977;DHT22;5029;47.378;11.776;2022-12-29T08:49:51;-1.60;99.90
9977;DHT22;5029;47.378;11.776;2022-12-29T08:54:56;-1.10;99.90
9977;DHT22;5029;47.378;11.776;2022-12-29T09:00:02;-0.40;99.90
9977;DHT22;5029;47.378;11.776;2022-12-29T09:05:07;0.70;99.90
9977;DHT22;5029;47.378;11.776;2022-12-29T09:10:13;0.90;99.90
9977;DHT22;5029;47.378;11.776;2022-12-29T09:15:19;-0.40;99.90
9977;DHT22;5029;47.378;11.776;2022-12-29T09:20:22;-0.30;99.90
9977;DHT22;5029;47.378;11.776;2022-12-29T09:25:27;-0.10;99.90
9977;DHT22;5029;47.378;11.776;2022-12-29T09:30:31;1.30;99.90
9977;DHT22;5029;47.378;11.776;2022-12-29T09:35:34;1.00;99.90
9977;DHT22;5029;47.378;11.776;2022-12-29T09:40:40;0.20;99.90
9977;DHT22;5029;47.378;11.776;2022-12-29T09:45:46;0.60;99.90
9977;DHT22;5029;47.378;11.776;2022-12-29T09:50:54;0.40;99.90
9977;DHT22;5029;47.378;11.776;2022-12-29T09:56:01;0.30;99.90
9977;DHT22;5029;47.378;11.776;2022-12-29T10:01:06;0.70;99.90
9977;DHT22;5029;47.378;11.776;2022-12-29T10:06:13;1.30;99.90
9977;DHT22;5029;47.378;11.776;2022-12-29T10:11:31;2.60;99.90
9977;DHT22;5029;47.378;11.776;2022-12-29T10:16:44;3.10;99.90
9977;DHT22;5029;47.378;11.776;2022-12-29T10:22:02;3.10;99.90
9977;DHT22;5029;47.378;11.776;2022-12-29T10:27:12;3.30;99.90
9977;DHT22;5029;47.378;11.776;2022-12-29T10:32:27;3.30;99.90
9977;DHT22;5029;47.378;11.776;2022-12-29T10:37:38;3.40;99.90
9977;DHT22;5029;47.378;11.776;2022-12-29T10:42:48;3.20;99.90
9977;DHT22;5029;47.378;11.776;2022-12-29T10:47:57;3.10;99.90
9977;DHT22;5029;47.378;11.776;2022-12-29T10:53:04;3.00;99.90
9977;DHT22;5029;47.378;11.776;2022-12-29T10:58:13;3.00;99.90
9977;DHT22;5029;47.378;11.776;2022-12-29T11:03:39;3.00;99.90
9977;DHT22;5029;47.378;11.776;2022-12-29T11:08:50;3.60;99.90
9977;DHT22;5029;47.378;11.776;2022-12-29T11:14:07;4.20;99.90
9977;DHT22;5029;47.378;11.776;2022-12-29T11:19:21;4.30;99.90
9977;DHT22;5029;47.378;11.776;2022-12-29T11:24:27;4.60;22.10
9977;DHT22;5029;47.378;11.776;2022-12-29T11:29:37;4.60;1.00
9977;DHT22;5029;47.378;11.776;2022-12-29T11:34:43;4.80;1.00
9977;DHT22;5029;47.378;11.776;2022-12-29T11:39:51;5.00;1.00
9977;DHT22;5029;47.378;11.776;2022-12-29T11:45:04;5.20;1.00
9977;DHT22;5029;47.378;11.776;2022-12-29T11:50:17;5.30;1.00
9977;DHT22;5029;47.378;11.776;2022-12-29T11:55:23;5.50;1.00
9977;DHT22;5029;47.378;11.776;2022-12-29T12:00:30;5.70;1.00
9977;DHT22;5029;47.378;11.776;2022-12-29T12:05:39;5.60;1.00
9977;DHT22;5029;47.378;11.776;2022-12-29T12:10:47;5.80;1.00
9977;DHT22;5029;47.378;11.776;2022-12-29T12:15:57;5.80;1.00
9977;DHT22;5029;47.378;11.776;2022-12-29T12:21:08;5.90;1.00
9977;DHT22;5029;47.378;11.776;2022-12-29T12:26:16;6.00;1.00
9977;DHT22;5029;47.378;11.776;2022-12-29T12:31:39;6.10;1.00
9977;DHT22;5029;47.378;11.776;2022-12-29T12:37:03;6.10;1.00
9977;DHT22;5029;47.378;11.776;2022-12-29T12:42:19;6.20;1.00
9977;DHT22;5029;47.378;11.776;2022-12-29T12:47:39;6.30;1.00
9977;DHT22;5029;47.378;11.776;2022-12-29T12:53:08;6.30;1.00
9977;DHT22;5029;47.378;11.776;2022-12-29T12:58:19;6.30;1.00
9977;DHT22;5029;47.378;11.776;2022-12-29T13:03:38;6.30;1.00
9977;DHT22;5029;47.378;11.776;2022-12-29T13:09:16;6.20;1.00
9977;DHT22;5029;47.378;11.776;2022-12-29T13:14:36;6.20;1.00
9977;DHT22;5029;47.378;11.776;2022-12-29T13:19:50;6.30;1.00
9977;DHT22;5029;47.378;11.776;2022-12-29T13:25:06;6.30;1.00
9977;DHT22;5029;47.378;11.776;2022-12-29T13:30:18;6.20;1.00
9977;DHT22;5029;47.378;11.776;2022-12-29T13:35:37;6.30;1.00
9977;DHT22;5029;47.378;11.776;2022-12-29T13:40:49;6.50;1.00
9977;DHT22;5029;47.378;11.776;2022-12-29T13:45:59;6.30;1.00
9977;DHT22;5029;47.378;11.776;2022-12-29T13:51:05;6.20;1.00
9977;DHT22;5029;47.378;11.776;2022-12-29T13:56:14;5.90;1.00
9977;DHT22;5029;47.378;11.776;2022-12-29T14:01:27;6.00;1.00
9977;DHT22;5029;47.378;11.776;2022-12-29T14:06:34;6.10;1.00
9977;DHT22;5029;47.378;11.776;2022-12-29T14:11:42;6.00;1.00
9977;DHT22;5029;47.378;11.776;2022-12-29T14:16:46;6.10;1.00
9977;DHT22;5029;47.378;11.776;2022-12-29T14:21:53;6.10;1.00
9977;DHT22;5029;47.378;11.776;2022-12-29T14:26:57;6.20;1.00
9977;DHT22;5029;47.378;11.776;2022-12-29T14:32:01;6.00;1.00
9977;DHT22;5029;47.378;11.776;2022-12-29T14:37:23;6.10;1.00
9977;DHT22;5029;47.378;11.776;2022-12-29T14:42:29;6.10;1.00
9977;DHT22;5029;47.378;11.776;2022-12-29T14:47:36;5.90;1.00
9977;DHT22;5029;47.378;11.776;2022-12-29T14:52:46;5.80;1.00
9977;DHT22;5029;47.378;11.776;2022-12-29T14:57:53;6.00;1.00
9977;DHT22;5029;47.378;11.776;2022-12-29T15:03:05;5.90;1.00
9977;DHT22;5029;47.378;11.776;2022-12-29T15:08:11;5.80;1.00
9977;DHT22;5029;47.378;11.776;2022-12-29T15:13:21;6.10;1.00
9977;DHT22;5029;47.378;11.776;2022-12-29T15:18:26;5.90;1.00
9977;DHT22;5029;47.378;11.776;2022-12-29T15:23:33;5.30;1.00
9977;DHT22;5029;47.378;11.776;2022-12-29T15:28:39;5.20;1.00
9977;DHT22;5029;47.378;11.776;2022-12-29T15:33:44;5.40;1.00
9977;DHT22;5029;47.378;11.776;2022-12-29T15:38:51;4.90;1.00
9977;DHT22;5029;47.378;11.776;2022-12-29T15:44:03;5.20;1.00
9977;DHT22;5029;47.378;11.776;2022-12-29T15:49:14;5.40;1.00
9977;DHT22;5029;47.378;11.776;2022-12-29T15:54:21;5.50;1.00
9977;DHT22;5029;47.378;11.776;2022-12-29T15:59:28;5.40;1.00
9977;DHT22;5029;47.378;11.776;2022-12-29T16:04:32;5.30;1.00
9977;DHT22;5029;47.378;11.776;2022-12-29T16:09:57;5.20;1.00
9977;DHT22;5029;47.378;11.776;2022-12-29T16:15:03;5.40;1.00
9977;DHT22;5029;47.378;11.776;2022-12-29T16:20:17;5.10;1.00
9977;DHT22;5029;47.378;11.776;2022-12-29T16:25:24;5.30;1.00
9977;DHT22;5029;47.378;11.776;2022-12-29T16:30:29;5.50;1.00
9977;DHT22;5029;47.378;11.776;2022-12-29T16:35:39;5.50;1.00
9977;DHT22;5029;47.378;11.776;2022-12-29T16:40:52;5.50;1.00
9977;DHT22;5029;47.378;11.776;2022-12-29T16:46:18;5.50;1.00
9977;DHT22;5029;47.378;11.776;2022-12-29T16:51:30;5.30;1.00
9977;DHT22;5029;47.378;11.776;2022-12-29T16:56:35;5.10;1.00
9977;DHT22;5029;47.378;11.776;2022-12-29T17:01:40;5.00;1.00
9977;DHT22;5029;47.378;11.776;2022-12-29T17:06:44;5.20;1.00
9977;DHT22;5029;47.378;11.776;2022-12-29T17:11:51;4.90;1.00
9977;DHT22;5029;47.378;11.776;2022-12-29T17:17:17;5.10;1.00
9977;DHT22;5029;47.378;11.776;2022-12-29T17:22:23;5.10;1.00
9977;DHT22;5029;47.378;11.776;2022-12-29T17:27:32;5.00;1.00
9977;DHT22;5029;47.378;11.776;2022-12-29T17:32:37;4.80;1.00
9977;DHT22;5029;47.378;11.776;2022-12-29T17:37:40;4.70;1.00
9977;DHT22;5029;47.378;11.776;2022-12-29T17:42:46;4.40;1.00
9977;DHT22;5029;47.378;11.776;2022-12-29T17:47:50;4.60;1.00
9977;DHT22;5029;47.378;11.776;2022-12-29T17:52:56;4.60;1.00
9977;DHT22;5029;47.378;11.776;2022-12-29T17:58:14;4.80;1.00
9977;DHT22;5029;47.378;11.776;2022-12-29T18:03:27;4.90;1.00
9977;DHT22;5029;47.378;11.776;2022-12-29T18:08:33;4.80;1.00
9977;DHT22;5029;47.378;11.776;2022-12-29T18:13:38;4.90;1.00
9977;DHT22;5029;47.378;11.776;2022-12-29T18:18:47;4.80;1.00
9977;DHT22;5029;47.378;11.776;2022-12-29T18:23:51;4.90;1.00
9977;DHT22;5029;47.378;11.776;2022-12-29T18:28:56;5.00;1.00
9977;DHT22;5029;47.378;11.776;2022-12-29T18:34:01;4.80;1.00
9977;DHT22;5029;47.378;11.776;2022-12-29T18:39:05;5.10;1.00
9977;DHT22;5029;47.378;11.776;2022-12-29T18:44:12;5.00;1.00
9977;DHT22;5029;47.378;11.776;2022-12-29T18:49:16;4.90;1.00
9977;DHT22;5029;47.378;11.776;2022-12-29T18:54:27;5.00;1.00
9977;DHT22;5029;47.378;11.776;2022-12-29T18:59:32;4.70;1.00
9977;DHT22;5029;47.378;11.776;2022-12-29T19:04:35;4.80;1.00
9977;DHT22;5029;47.378;11.776;2022-12-29T19:09:39;4.70;1.00
9977;DHT22;5029;47.378;11.776;2022-12-29T19:14:44;4.70;1.00
9977;DHT22;5029;47.378;11.776;2022-12-29T19:19:48;4.80;1.00
9977;DHT22;5029;47.378;11.776;2022-12-29T19:24:52;4.20;1.00
9977;DHT22;5029;47.378;11.776;2022-12-29T19:30:03;4.20;1.00
9977;DHT22;5029;47.378;11.776;2022-12-29T19:35:08;4.00;1.00
9977;DHT22;5029;47.378;11.776;2022-12-29T19:40:14;3.60;1.00
9977;DHT22;5029;47.378;11.776;2022-12-29T19:45:19;4.10;1.00
9977;DHT22;5029;47.378;11.776;2022-12-29T19:50:23;3.80;1.00
9977;DHT22;5029;47.378;11.776;2022-12-29T19:55:26;3.50;1.00
9977;DHT22;5029;47.378;11.776;2022-12-29T20:00:31;3.60;1.00
9977;DHT22;5029;47.378;11.776;2022-12-29T20:05:36;3.80;1.00
9977;DHT22;5029;47.378;11.776;2022-12-29T20:10:40;4.10;1.00
9977;DHT22;5029;47.378;11.776;2022-12-29T20:15:45;4.50;1.00
9977;DHT22;5029;47.378;11.776;2022-12-29T20:20:48;4.50;1.00
9977;DHT22;5029;47.378;11.776;2022-12-29T20:25:56;3.30;1.00
9977;DHT22;5029;47.378;11.776;2022-12-29T20:31:05;3.30;1.00
9977;DHT22;5029;47.378;11.776;2022-12-29T20:36:11;3.60;1.00
9977;DHT22;5029;47.378;11.776;2022-12-29T20:41:16;3.00;1.00
9977;DHT22;5029;47.378;11.776;2022-12-29T20:46:22;3.10;1.00
9977;DHT22;5029;47.378;11.776;2022-12-29T20:51:36;2.80;1.00
9977;DHT22;5029;47.378;11.776;2022-12-29T20:56:59;2.60;1.00
9977;DHT22;5029;47.378;11.776;2022-12-29T21:02:05;2.70;1.00
9977;DHT22;5029;47.378;11.776;2022-12-29T21:07:09;2.50;1.00
9977;DHT22;5029;47.378;11.776;2022-12-29T21:12:20;2.80;1.00
9977;DHT22;5029;47.378;11.776;2022-12-29T21:17:25;2.90;1.00
9977;DHT22;5029;47.378;11.776;2022-12-29T21:22:29;2.60;1.00
9977;DHT22;5029;47.378;11.776;2022-12-29T21:27:32;2.60;1.00
9977;DHT22;5029;47.378;11.776;2022-12-29T21:32:37;2.40;1.00
9977;DHT22;5029;47.378;11.776;2022-12-29T21:37:41;2.00;1.00
9977;DHT22;5029;47.378;11.776;2022-12-29T21:42:44;2.00;1.00
9977;DHT22;5029;47.378;11.776;2022-12-29T21:47:49;2.00;1.00
9977;DHT22;5029;47.378;11.776;2022-12-29T21:53:13;2.10;1.00
9977;DHT22;5029;47.378;11.776;2022-12-29T21:58:16;2.20;62.50
9977;DHT22;5029;47.378;11.776;2022-12-29T22:03:39;2.30;99.90
9977;DHT22;5029;47.378;11.776;2022-12-29T22:09:01;2.40;99.90
9977;DHT22;5029;47.378;11.776;2022-12-29T22:14:22;2.20;99.90
9977;DHT22;5029;47.378;11.776;2022-12-29T22:19:26;2.10;99.90
9977;DHT22;5029;47.378;11.776;2022-12-29T22:24:30;1.80;99.90
9977;DHT22;5029;47.378;11.776;2022-12-29T22:29:34;1.60;99.90
9977;DHT22;5029;47.378;11.776;2022-12-29T22:34:39;1.40;99.90
9977;DHT22;5029;47.378;11.776;2022-12-29T22:39:42;1.20;99.90
9977;DHT22;5029;47.378;11.776;2022-12-29T22:44:46;1.30;99.90
9977;DHT22;5029;47.378;11.776;2022-12-29T22:49:50;1.30;99.90
9977;DHT22;5029;47.378;11.776;2022-12-29T22:54:54;1.30;99.90
9977;DHT22;5029;47.378;11.776;2022-12-29T23:00:07;1.50;99.90
9977;DHT22;5029;47.378;11.776;2022-12-29T23:05:12;1.60;99.90
9977;DHT22;5029;47.378;11.776;2022-12-29T23:10:15;1.40;99.90
9977;DHT22;5029;47.378;11.776;2022-12-29T23:15:19;1.50;99.90
9977;DHT22;5029;47.378;11.776;2022-12-29T23:20:24;1.40;99.90
9977;DHT22;5029;47.378;11.776;2022-12-29T23:25:27;1.50;99.90
9977;DHT22;5029;47.378;11.776;2022-12-29T23:30:31;1.40;99.90
9977;DHT22;5029;47.378;11.776;2022-12-29T23:35:38;1.00;99.90
9977;DHT22;5029;47.378;11.776;2022-12-29T23:40:41;1.10;99.90
9977;DHT22;5029;47.378;11.776;2022-12-29T23:45:45;1.00;99.90
9977;DHT22;5029;47.378;11.776;2022-12-29T23:50:54;1.20;99.90
9977;DHT22;5029;47.378;11.776;2022-12-29T23:55:58;1.10;99.90
